Time,TemperatureF,DewpointF,PressureIn,WindDirection,WindDirectionDegrees,WindSpeedMPH,WindSpeedGustMPH,Humidity,HourlyPrecipIn,Conditions,Clouds,dailyrainin,SoftwareType,DateUTC
2013-02-17 00:00:00,23.9,20.1,30.39,SSE,158,0.0,0.0,85,0.00,,---,0.00,VWS V13.01,2013-02-17 08:00:00,
2013-02-17 00:05:00,24.1,20.5,30.39,SSE,158,0.0,0.0,86,0.00,,---,0.00,VWS V13.01,2013-02-17 08:05:00,
2013-02-17 00:10:00,23.7,20.1,30.39,SSE,158,0.0,0.0,86,0.00,,---,0.00,VWS V13.01,2013-02-17 08:10:00,
2013-02-17 00:15:00,23.5,20.2,30.39,SSE,158,0.0,0.0,87,0.00,,---,0.00,VWS V13.01,2013-02-17 08:15:00,
2013-02-17 00:20:00,23.9,20.6,30.39,SSE,158,0.0,0.0,87,0.00,,---,0.00,VWS V13.01,2013-02-17 08:20:00,
2013-02-17 00:25:00,24.8,22.0,30.39,SSE,158,0.0,0.0,89,0.00,,---,0.00,VWS V13.01,2013-02-17 08:25:00,
2013-02-17 00:30:00,25.0,22.2,30.39,NW,315,4.9,4.9,89,0.00,,---,0.00,VWS V13.01,2013-02-17 08:30:00,
2013-02-17 00:35:00,25.7,22.6,30.39,NW,315,0.0,0.0,88,0.00,,---,0.00,VWS V13.01,2013-02-17 08:35:00,
2013-02-17 00:40:00,25.0,21.4,30.39,NW,315,0.0,0.0,86,0.00,,---,0.00,VWS V13.01,2013-02-17 08:40:00,
2013-02-17 00:45:00,25.3,21.2,30.39,NW,315,0.0,0.0,84,0.00,,---,0.00,VWS V13.01,2013-02-17 08:45:00,
2013-02-17 00:50:00,24.3,19.6,30.39,NW,315,3.1,3.1,82,0.00,,---,0.00,VWS V13.01,2013-02-17 08:50:00,
2013-02-17 00:55:00,24.1,19.4,30.39,NW,315,0.0,0.0,82,0.00,,---,0.00,VWS V13.01,2013-02-17 08:55:00,
2013-02-17 01:00:00,24.6,20.2,30.39,NW,315,2.2,2.7,83,0.00,,---,0.00,VWS V13.01,2013-02-17 09:00:00,
2013-02-17 01:05:00,24.4,20.0,30.39,NW,315,2.7,3.1,83,0.00,,---,0.00,VWS V13.01,2013-02-17 09:05:00,
2013-02-17 01:10:00,23.7,19.3,30.39,NW,315,0.0,0.0,83,0.00,,---,0.00,VWS V13.01,2013-02-17 09:10:00,
2013-02-17 01:15:00,23.5,19.1,30.39,NW,315,0.0,0.0,83,0.00,,---,0.00,VWS V13.01,2013-02-17 09:15:00,
2013-02-17 01:20:00,23.5,19.1,30.39,NW,315,0.0,0.0,83,0.00,,---,0.00,VWS V13.01,2013-02-17 09:20:00,
2013-02-17 01:25:00,23.5,19.1,30.39,NW,315,0.0,0.0,83,0.00,,---,0.00,VWS V13.01,2013-02-17 09:25:00,
2013-02-17 01:30:00,22.5,18.6,30.39,NW,315,0.0,0.0,85,0.00,,---,0.00,VWS V13.01,2013-02-17 09:30:00,
2013-02-17 01:35:00,22.8,19.5,30.39,NW,315,0.0,0.0,87,0.00,,---,0.00,VWS V13.01,2013-02-17 09:35:00,
2013-02-17 01:40:00,22.3,19.0,30.39,NW,315,0.0,0.0,87,0.00,,---,0.00,VWS V13.01,2013-02-17 09:40:00,
2013-02-17 01:45:00,22.1,18.8,30.39,NW,315,2.7,2.7,87,0.00,,---,0.00,VWS V13.01,2013-02-17 09:45:00,
2013-02-17 01:50:00,21.9,18.9,30.39,NW,315,0.0,0.0,88,0.00,,---,0.00,VWS V13.01,2013-02-17 09:50:00,
2013-02-17 01:55:00,22.8,20.1,30.39,SW,225,4.0,4.0,89,0.00,,---,0.00,VWS V13.01,2013-02-17 09:55:00,
2013-02-17 02:00:00,22.8,20.3,30.39,SW,225,0.0,0.0,90,0.00,,---,0.00,VWS V13.01,2013-02-17 10:00:00,
2013-02-17 02:05:00,22.1,19.4,30.39,SW,225,0.0,0.0,89,0.00,,---,0.00,VWS V13.01,2013-02-17 10:05:00,
2013-02-17 02:10:00,21.9,18.9,30.39,SW,225,0.0,0.0,88,0.00,,---,0.00,VWS V13.01,2013-02-17 10:10:00,
2013-02-17 02:15:00,21.7,18.7,30.39,SW,225,0.0,0.0,88,0.00,,---,0.00,VWS V13.01,2013-02-17 10:15:00,
2013-02-17 02:20:00,21.0,18.0,30.39,SW,225,0.0,0.0,88,0.00,,---,0.00,VWS V13.01,2013-02-17 10:20:00,
2013-02-17 02:25:00,20.7,17.7,30.39,SW,225,0.0,0.0,88,0.00,,---,0.00,VWS V13.01,2013-02-17 10:25:00,
2013-02-17 02:30:00,20.3,17.3,30.39,SW,225,0.0,0.0,88,0.00,,---,0.00,VWS V13.01,2013-02-17 10:30:00,
2013-02-17 02:35:00,20.1,17.4,30.39,SW,225,0.0,0.0,89,0.00,,---,0.00,VWS V13.01,2013-02-17 10:35:00,
2013-02-17 02:40:00,20.1,17.4,30.39,SW,225,0.0,0.0,89,0.00,,---,0.00,VWS V13.01,2013-02-17 10:40:00,
2013-02-17 02:45:00,20.1,17.4,30.39,SW,225,0.0,0.0,89,0.00,,---,0.00,VWS V13.01,2013-02-17 10:45:00,
2013-02-17 02:50:00,19.9,17.5,30.39,SW,225,0.0,0.0,90,0.00,,---,0.00,VWS V13.01,2013-02-17 10:50:00,
2013-02-17 02:55:00,19.8,17.3,30.39,SW,225,0.0,0.0,90,0.00,,---,0.00,VWS V13.01,2013-02-17 10:55:00,
2013-02-17 03:00:00,19.4,17.2,30.39,SW,225,0.0,0.0,91,0.00,,---,0.00,VWS V13.01,2013-02-17 11:00:00,
2013-02-17 03:05:00,19.4,17.2,30.39,SW,225,0.0,0.0,91,0.00,,---,0.00,VWS V13.01,2013-02-17 11:05:00,
2013-02-17 03:10:00,19.8,17.6,30.39,SW,225,0.0,0.0,91,0.00,,---,0.00,VWS V13.01,2013-02-17 11:10:00,
2013-02-17 03:15:00,19.8,17.6,30.39,SW,225,0.0,0.0,91,0.00,,---,0.00,VWS V13.01,2013-02-17 11:15:00,
2013-02-17 03:20:00,19.9,18.0,30.39,SW,225,0.0,0.0,92,0.00,,---,0.00,VWS V13.01,2013-02-17 11:20:00,
2013-02-17 03:25:00,20.7,18.7,30.39,SW,225,0.0,0.0,92,0.00,,---,0.00,VWS V13.01,2013-02-17 11:25:00,
2013-02-17 03:30:00,21.0,19.1,30.39,SW,225,0.0,0.0,92,0.00,,---,0.00,VWS V13.01,2013-02-17 11:30:00,
2013-02-17 03:35:00,21.6,19.6,30.39,SW,225,0.0,0.0,92,0.00,,---,0.00,VWS V13.01,2013-02-17 11:35:00,
2013-02-17 03:40:00,21.7,19.5,30.39,SW,225,0.0,0.0,91,0.00,,---,0.00,VWS V13.01,2013-02-17 11:40:00,
2013-02-17 03:45:00,21.0,18.8,30.39,SW,225,0.0,0.0,91,0.00,,---,0.00,VWS V13.01,2013-02-17 11:45:00,
2013-02-17 03:50:00,20.8,18.6,30.39,SW,225,0.0,0.0,91,0.00,,---,0.00,VWS V13.01,2013-02-17 11:50:00,
2013-02-17 03:55:00,20.7,18.5,30.39,SW,225,0.0,0.0,91,0.00,,---,0.00,VWS V13.01,2013-02-17 11:55:00,
2013-02-17 04:00:00,20.5,18.3,30.39,SW,225,0.0,0.0,91,0.00,,---,0.00,VWS V13.01,2013-02-17 12:00:00,
2013-02-17 04:05:00,19.8,17.3,30.39,SW,225,0.0,0.0,90,0.00,,---,0.00,VWS V13.01,2013-02-17 12:05:00,
2013-02-17 04:10:00,19.8,17.3,30.39,SW,225,0.0,0.0,90,0.00,,---,0.00,VWS V13.01,2013-02-17 12:10:00,
2013-02-17 04:15:00,19.2,17.0,30.39,SW,225,0.0,0.0,91,0.00,,---,0.00,VWS V13.01,2013-02-17 12:15:00,
2013-02-17 04:20:00,19.2,17.0,30.39,SW,225,0.0,0.0,91,0.00,,---,0.00,VWS V13.01,2013-02-17 12:20:00,
2013-02-17 04:25:00,19.2,17.0,30.39,SW,225,0.0,0.0,91,0.00,,---,0.00,VWS V13.01,2013-02-17 12:25:00,
2013-02-17 04:30:00,18.7,16.5,30.39,SW,225,0.0,0.0,91,0.00,,---,0.00,VWS V13.01,2013-02-17 12:30:00,
2013-02-17 04:35:00,19.2,17.3,30.39,SW,225,0.0,0.0,92,0.00,,---,0.00,VWS V13.01,2013-02-17 12:35:00,
2013-02-17 04:40:00,19.2,17.3,30.39,SW,225,0.0,0.0,92,0.00,,---,0.00,VWS V13.01,2013-02-17 12:40:00,
2013-02-17 04:45:00,18.5,16.6,30.39,SW,225,0.0,0.0,92,0.00,,---,0.00,VWS V13.01,2013-02-17 12:45:00,
2013-02-17 04:50:00,18.7,16.8,30.39,SW,225,0.0,0.0,92,0.00,,---,0.00,VWS V13.01,2013-02-17 12:50:00,
2013-02-17 04:55:00,18.1,16.2,30.39,SW,225,0.0,0.0,92,0.00,,---,0.00,VWS V13.01,2013-02-17 12:55:00,
2013-02-17 05:00:00,18.3,16.6,30.39,SW,225,0.0,0.0,93,0.00,,---,0.00,VWS V13.01,2013-02-17 13:00:00,
2013-02-17 05:05:00,18.3,16.6,30.39,SW,225,0.0,0.0,93,0.00,,---,0.00,VWS V13.01,2013-02-17 13:05:00,
2013-02-17 05:10:00,18.3,16.9,30.36,SW,225,0.0,0.0,94,0.00,,---,0.00,VWS V13.01,2013-02-17 13:10:00,
2013-02-17 05:15:00,19.0,17.9,30.36,SW,225,0.0,0.0,95,0.00,,---,0.00,VWS V13.01,2013-02-17 13:15:00,
2013-02-17 05:20:00,18.5,17.3,30.36,SW,225,0.0,0.0,95,0.00,,---,0.00,VWS V13.01,2013-02-17 13:20:00,
2013-02-17 05:25:00,18.7,17.7,30.36,SW,225,0.0,0.0,96,0.00,,---,0.00,VWS V13.01,2013-02-17 13:25:00,
2013-02-17 05:30:00,18.1,17.0,30.36,SW,225,0.0,0.0,95,0.00,,---,0.00,VWS V13.01,2013-02-17 13:30:00,
2013-02-17 05:35:00,18.3,17.1,30.36,SW,225,0.0,0.0,95,0.00,,---,0.00,VWS V13.01,2013-02-17 13:35:00,
2013-02-17 05:40:00,17.8,16.6,30.36,SW,225,0.0,0.0,95,0.00,,---,0.00,VWS V13.01,2013-02-17 13:40:00,
2013-02-17 05:45:00,17.2,16.3,30.36,SW,225,0.0,0.0,96,0.00,,---,0.00,VWS V13.01,2013-02-17 13:45:00,
2013-02-17 05:50:00,17.1,15.9,30.36,SW,225,0.0,0.0,95,0.00,,---,0.00,VWS V13.01,2013-02-17 13:50:00,
2013-02-17 05:55:00,17.4,16.5,30.36,SW,225,0.0,0.0,96,0.00,,---,0.00,VWS V13.01,2013-02-17 13:55:00,
2013-02-17 06:00:00,17.2,16.3,30.36,SW,225,0.0,0.0,96,0.00,,---,0.00,VWS V13.01,2013-02-17 14:00:00,
2013-02-17 06:05:00,17.4,16.5,30.36,SW,225,0.0,0.0,96,0.00,,---,0.00,VWS V13.01,2013-02-17 14:05:00,
2013-02-17 06:10:00,17.4,16.5,30.36,SW,225,0.0,0.0,96,0.00,,---,0.00,VWS V13.01,2013-02-17 14:10:00,
2013-02-17 06:15:00,17.4,16.5,30.36,SW,225,0.0,0.0,96,0.00,,---,0.00,VWS V13.01,2013-02-17 14:15:00,
2013-02-17 06:20:00,17.4,16.5,30.36,SW,225,0.0,0.0,96,0.00,,---,0.00,VWS V13.01,2013-02-17 14:20:00,
2013-02-17 06:25:00,17.4,16.5,30.36,SW,225,0.0,0.0,96,0.00,,---,0.00,VWS V13.01,2013-02-17 14:25:00,
2013-02-17 06:30:00,17.4,16.5,30.36,SW,225,0.0,0.0,96,0.00,,---,0.00,VWS V13.01,2013-02-17 14:30:00,
2013-02-17 06:35:00,17.4,16.5,30.36,SW,225,0.0,0.0,96,0.00,,---,0.00,VWS V13.01,2013-02-17 14:35:00,
2013-02-17 06:40:00,17.4,16.5,30.36,SW,225,0.0,0.0,96,0.00,,---,0.00,VWS V13.01,2013-02-17 14:40:00,
2013-02-17 06:45:00,17.4,16.5,30.36,SW,225,0.0,0.0,96,0.00,,---,0.00,VWS V13.01,2013-02-17 14:45:00,
2013-02-17 06:50:00,17.4,16.5,30.36,SW,225,0.0,0.0,96,0.00,,---,0.00,VWS V13.01,2013-02-17 14:50:00,
2013-02-17 06:55:00,17.4,16.5,30.39,SW,225,0.0,0.0,96,0.00,,---,0.00,VWS V13.01,2013-02-17 14:55:00,
2013-02-17 07:00:00,17.4,16.5,30.39,SW,225,0.0,0.0,96,0.00,,---,0.00,VWS V13.01,2013-02-17 15:00:00,
2013-02-17 07:05:00,17.4,16.5,30.39,SW,225,0.0,0.0,96,0.00,,---,0.00,VWS V13.01,2013-02-17 15:05:00,
2013-02-17 07:10:00,17.4,16.5,30.39,SW,225,0.0,0.0,96,0.00,,---,0.00,VWS V13.01,2013-02-17 15:10:00,
2013-02-17 07:15:00,17.4,16.5,30.39,SW,225,0.0,0.0,96,0.00,,---,0.00,VWS V13.01,2013-02-17 15:15:00,
2013-02-17 07:19:00,17.4,16.5,30.39,SW,225,0.0,0.0,96,0.00,,---,0.00,VWS V13.01,2013-02-17 15:19:00,
2013-02-17 07:20:00,17.4,16.5,30.39,SW,225,0.0,0.0,96,0.00,,---,0.00,VWS V13.01,2013-02-17 15:20:00,
2013-02-17 07:25:00,17.4,16.5,30.36,SW,225,0.0,0.0,96,0.00,,---,0.00,VWS V13.01,2013-02-17 15:25:00,
2013-02-17 07:30:00,17.4,16.5,30.36,SW,225,0.0,0.0,96,0.00,,---,0.00,VWS V13.01,2013-02-17 15:30:00,
2013-02-17 07:35:00,17.4,16.5,30.36,SW,225,0.0,0.0,96,0.00,,---,0.00,VWS V13.01,2013-02-17 15:35:00,
2013-02-17 07:40:00,17.4,16.5,30.36,SW,225,0.0,0.0,96,0.00,,---,0.00,VWS V13.01,2013-02-17 15:40:00,
2013-02-17 07:45:00,17.4,16.5,30.36,SW,225,0.0,0.0,96,0.00,,---,0.00,VWS V13.01,2013-02-17 15:45:00,
2013-02-17 07:50:00,17.4,16.5,30.36,SW,225,0.0,0.0,96,0.00,,---,0.00,VWS V13.01,2013-02-17 15:50:00,
2013-02-17 07:55:00,17.4,16.5,30.39,SW,225,0.0,0.0,96,0.00,,---,0.00,VWS V13.01,2013-02-17 15:55:00,
2013-02-17 08:00:00,17.4,16.5,30.39,SW,225,0.0,0.0,96,0.00,,---,0.00,VWS V13.01,2013-02-17 16:00:00,
2013-02-17 08:05:00,17.4,16.5,30.39,SW,225,0.0,0.0,96,0.00,,---,0.00,VWS V13.01,2013-02-17 16:05:00,
2013-02-17 08:10:00,17.4,16.5,30.39,SW,225,0.0,0.0,96,0.00,,---,0.00,VWS V13.01,2013-02-17 16:10:00,
2013-02-17 08:15:00,17.4,16.5,30.39,SW,225,0.0,0.0,96,0.00,,---,0.00,VWS V13.01,2013-02-17 16:15:00,
2013-02-17 08:20:00,17.4,16.5,30.39,SW,225,0.0,0.0,96,0.00,,---,0.00,VWS V13.01,2013-02-17 16:20:00,
2013-02-17 08:25:00,17.4,16.5,30.36,SW,225,0.0,0.0,96,0.00,,---,0.00,VWS V13.01,2013-02-17 16:25:00,
2013-02-17 08:30:00,17.4,16.5,30.36,SW,225,0.0,0.0,96,0.00,,---,0.00,VWS V13.01,2013-02-17 16:30:00,
2013-02-17 08:35:00,17.4,16.5,30.36,SW,225,0.0,0.0,96,0.00,,---,0.00,VWS V13.01,2013-02-17 16:35:00,
2013-02-17 08:40:00,17.4,16.5,30.39,SW,225,0.0,0.0,96,0.00,,---,0.00,VWS V13.01,2013-02-17 16:40:00,
2013-02-17 08:45:00,29.1,26.8,30.39,SW,225,0.0,0.0,91,0.00,,---,0.00,VWS V13.01,2013-02-17 16:45:00,
2013-02-17 08:50:00,29.1,26.8,30.39,SW,225,0.0,0.0,91,0.00,,---,0.00,VWS V13.01,2013-02-17 16:50:00,
2013-02-17 08:55:00,29.1,26.8,30.39,SW,225,0.0,0.0,91,0.00,,---,0.00,VWS V13.01,2013-02-17 16:55:00,
2013-02-17 09:00:00,29.1,26.8,30.39,SW,225,0.0,0.0,91,0.00,,---,0.00,VWS V13.01,2013-02-17 17:00:00,
2013-02-17 09:05:00,29.1,26.8,30.39,SW,225,0.0,0.0,91,0.00,,---,0.00,VWS V13.01,2013-02-17 17:05:00,
2013-02-17 09:10:00,29.1,26.8,30.36,SW,225,0.0,0.0,91,0.00,,---,0.00,VWS V13.01,2013-02-17 17:10:00,
2013-02-17 09:15:00,33.8,19.8,30.36,SW,225,0.0,0.0,56,0.00,,---,0.00,VWS V13.01,2013-02-17 17:15:00,
2013-02-17 09:20:00,34.3,19.9,30.36,SW,225,2.7,3.6,55,0.00,,---,0.00,VWS V13.01,2013-02-17 17:20:00,
2013-02-17 09:25:00,35.6,20.2,30.39,SW,225,0.0,0.0,53,0.00,,---,0.00,VWS V13.01,2013-02-17 17:25:00,
2013-02-17 09:30:00,35.8,19.4,30.39,SW,225,2.7,2.7,51,0.00,,---,0.00,VWS V13.01,2013-02-17 17:30:00,
2013-02-17 09:35:00,36.0,19.1,30.36,SW,225,0.0,0.0,50,0.00,,---,0.00,VWS V13.01,2013-02-17 17:35:00,
2013-02-17 09:40:00,36.7,19.3,30.36,SW,225,0.0,2.2,49,0.00,,---,0.00,VWS V13.01,2013-02-17 17:40:00,
2013-02-17 09:45:00,36.7,19.3,30.36,SW,225,0.0,2.7,49,0.00,,---,0.00,VWS V13.01,2013-02-17 17:45:00,
2013-02-17 09:50:00,37.6,18.7,30.36,SW,225,0.0,0.0,46,0.00,,---,0.00,VWS V13.01,2013-02-17 17:50:00,
2013-02-17 09:55:00,37.9,18.5,30.36,SW,225,0.0,0.0,45,0.00,,---,0.00,VWS V13.01,2013-02-17 17:55:00,
2013-02-17 10:00:00,38.8,18.8,30.36,SW,225,0.0,0.0,44,0.00,,---,0.00,VWS V13.01,2013-02-17 18:00:00,
2013-02-17 10:05:00,39.2,18.6,30.36,SW,225,2.2,2.2,43,0.00,,---,0.00,VWS V13.01,2013-02-17 18:05:00,
2013-02-17 10:10:00,39.7,18.5,30.36,SW,225,3.6,4.0,42,0.00,,---,0.00,VWS V13.01,2013-02-17 18:10:00,
2013-02-17 10:15:00,38.8,17.7,30.36,SW,225,0.0,0.0,42,0.00,,---,0.00,VWS V13.01,2013-02-17 18:15:00,
2013-02-17 10:20:00,38.8,18.3,30.36,SW,225,2.7,2.7,43,0.00,,---,0.00,VWS V13.01,2013-02-17 18:20:00,
2013-02-17 10:25:00,39.4,18.2,30.39,SW,225,0.0,0.0,42,0.00,,---,0.00,VWS V13.01,2013-02-17 18:25:00,
2013-02-17 10:30:00,39.2,17.5,30.39,SW,225,2.7,2.7,41,0.00,,---,0.00,VWS V13.01,2013-02-17 18:30:00,
2013-02-17 10:35:00,39.7,18.0,30.39,SE,135,2.7,2.7,41,0.00,,---,0.00,VWS V13.01,2013-02-17 18:35:00,
2013-02-17 10:40:00,40.1,18.3,30.36,SE,135,0.0,0.0,41,0.00,,---,0.00,VWS V13.01,2013-02-17 18:40:00,
2013-02-17 10:45:00,40.1,18.3,30.36,SE,135,2.2,2.2,41,0.00,,---,0.00,VWS V13.01,2013-02-17 18:45:00,
2013-02-17 10:50:00,41.2,18.7,30.36,ESE,112,0.0,0.0,40,0.00,,---,0.00,VWS V13.01,2013-02-17 18:50:00,
2013-02-17 10:55:00,40.3,17.9,30.36,SW,225,0.0,2.2,40,0.00,,---,0.00,VWS V13.01,2013-02-17 18:55:00,
2013-02-17 11:00:00,40.3,17.9,30.36,SW,225,0.0,0.0,40,0.00,,---,0.00,VWS V13.01,2013-02-17 19:00:00,
2013-02-17 11:05:00,40.3,17.9,30.36,SW,225,0.0,0.0,40,0.00,,---,0.00,VWS V13.01,2013-02-17 19:05:00,
2013-02-17 11:10:00,40.3,17.9,30.36,SW,225,0.0,0.0,40,0.00,,---,0.00,VWS V13.01,2013-02-17 19:10:00,
2013-02-17 11:15:00,40.3,17.9,30.36,NE,45,0.0,0.0,40,0.00,,---,0.00,VWS V13.01,2013-02-17 19:15:00,
2013-02-17 11:20:00,40.3,17.9,30.36,NE,45,0.0,0.0,40,0.00,,---,0.00,VWS V13.01,2013-02-17 19:20:00,
2013-02-17 11:25:00,40.3,17.9,30.36,NE,45,0.0,0.0,40,0.00,,---,0.00,VWS V13.01,2013-02-17 19:25:00,
2013-02-17 11:30:00,40.3,17.9,30.36,NE,45,0.0,0.0,40,0.00,,---,0.00,VWS V13.01,2013-02-17 19:30:00,
2013-02-17 11:35:00,40.3,17.9,30.36,NE,45,0.0,0.0,40,0.00,,---,0.00,VWS V13.01,2013-02-17 19:35:00,
2013-02-17 11:40:00,40.3,17.9,30.36,NE,45,0.0,0.0,40,0.00,,---,0.00,VWS V13.01,2013-02-17 19:40:00,
2013-02-17 11:45:00,40.3,17.9,30.36,NE,45,0.0,0.0,40,0.00,,---,0.00,VWS V13.01,2013-02-17 19:45:00,
2013-02-17 11:50:00,40.3,17.9,30.36,NE,45,0.0,0.0,40,0.00,,---,0.00,VWS V13.01,2013-02-17 19:50:00,
2013-02-17 11:55:00,40.3,17.9,30.33,NE,45,0.0,0.0,40,0.00,,---,0.00,VWS V13.01,2013-02-17 19:55:00,
2013-02-17 12:00:00,40.3,17.9,30.33,NE,45,0.0,0.0,40,0.00,,---,0.00,VWS V13.01,2013-02-17 20:00:00,
2013-02-17 12:05:00,40.3,17.9,30.33,NE,45,0.0,0.0,40,0.00,,---,0.00,VWS V13.01,2013-02-17 20:05:00,
2013-02-17 12:10:00,40.3,17.9,30.36,NE,45,0.0,0.0,40,0.00,,---,0.00,VWS V13.01,2013-02-17 20:10:00,
2013-02-17 12:15:00,40.3,17.9,30.36,NE,45,0.0,0.0,40,0.00,,---,0.00,VWS V13.01,2013-02-17 20:15:00,
2013-02-17 12:20:00,40.3,17.9,30.36,NE,45,0.0,0.0,40,0.00,,---,0.00,VWS V13.01,2013-02-17 20:20:00,
2013-02-17 12:25:00,40.3,17.9,30.33,NE,45,0.0,0.0,40,0.00,,---,0.00,VWS V13.01,2013-02-17 20:25:00,
2013-02-17 12:30:00,40.3,17.9,30.33,NE,45,0.0,0.0,40,0.00,,---,0.00,VWS V13.01,2013-02-17 20:30:00,
2013-02-17 12:35:00,40.3,17.9,30.33,NE,45,0.0,0.0,40,0.00,,---,0.00,VWS V13.01,2013-02-17 20:35:00,
2013-02-17 12:40:00,40.3,17.9,30.33,NE,45,0.0,0.0,40,0.00,,---,0.00,VWS V13.01,2013-02-17 20:40:00,
2013-02-17 12:45:00,40.3,17.9,30.33,NE,45,0.0,0.0,40,0.00,,---,0.00,VWS V13.01,2013-02-17 20:45:00,
2013-02-17 12:50:00,40.3,17.9,30.33,NE,45,0.0,0.0,40,0.00,,---,0.00,VWS V13.01,2013-02-17 20:50:00,
2013-02-17 12:55:00,40.3,17.9,30.33,NE,45,0.0,0.0,40,0.00,,---,0.00,VWS V13.01,2013-02-17 20:55:00,
2013-02-17 13:00:00,40.3,17.9,30.33,NE,45,0.0,0.0,40,0.00,,---,0.00,VWS V13.01,2013-02-17 21:00:00,
2013-02-17 13:05:00,40.3,17.9,30.33,NE,45,0.0,0.0,40,0.00,,---,0.00,VWS V13.01,2013-02-17 21:05:00,
2013-02-17 13:10:00,40.3,17.9,30.33,NE,45,0.0,0.0,40,0.00,,---,0.00,VWS V13.01,2013-02-17 21:10:00,
2013-02-17 13:15:00,40.3,17.9,30.33,NE,45,0.0,0.0,40,0.00,,---,0.00,VWS V13.01,2013-02-17 21:15:00,
2013-02-17 13:20:00,40.3,17.9,30.33,NE,45,0.0,0.0,40,0.00,,---,0.00,VWS V13.01,2013-02-17 21:20:00,
2013-02-17 13:25:00,40.3,17.9,30.33,NE,45,0.0,0.0,40,0.00,,---,0.00,VWS V13.01,2013-02-17 21:25:00,
2013-02-17 13:30:00,40.3,17.9,30.33,NE,45,0.0,0.0,40,0.00,,---,0.00,VWS V13.01,2013-02-17 21:30:00,
2013-02-17 13:35:00,40.3,17.9,30.33,NE,45,0.0,0.0,40,0.00,,---,0.00,VWS V13.01,2013-02-17 21:35:00,
2013-02-17 13:40:00,40.3,17.9,30.30,NE,45,0.0,0.0,40,0.00,,---,0.00,VWS V13.01,2013-02-17 21:40:00,
2013-02-17 13:45:00,40.3,17.9,30.30,NE,45,0.0,0.0,40,0.00,,---,0.00,VWS V13.01,2013-02-17 21:45:00,
2013-02-17 13:50:00,40.3,17.9,30.30,NE,45,0.0,0.0,40,0.00,,---,0.00,VWS V13.01,2013-02-17 21:50:00,
2013-02-17 13:55:00,40.3,17.9,30.30,NE,45,0.0,0.0,40,0.00,,---,0.00,VWS V13.01,2013-02-17 21:55:00,
2013-02-17 14:00:00,46.0,18.6,30.30,East,90,2.7,2.7,33,0.00,,---,0.00,VWS V13.01,2013-02-17 22:00:00,
2013-02-17 14:05:00,46.4,18.2,30.30,South,180,4.0,4.0,32,0.00,,---,0.00,VWS V13.01,2013-02-17 22:05:00,
2013-02-17 14:10:00,47.1,18.1,30.30,NE,45,4.0,4.0,31,0.00,,---,0.00,VWS V13.01,2013-02-17 22:10:00,
2013-02-17 14:15:00,47.3,18.2,30.30,NE,45,4.0,4.0,31,0.00,,---,0.00,VWS V13.01,2013-02-17 22:15:00,
2013-02-17 14:20:00,47.3,18.2,30.30,NE,45,0.0,0.0,31,0.00,,---,0.00,VWS V13.01,2013-02-17 22:20:00,
2013-02-17 14:25:00,48.0,18.8,30.30,East,90,2.7,3.1,31,0.00,,---,0.00,VWS V13.01,2013-02-17 22:25:00,
2013-02-17 14:30:00,48.2,18.2,30.30,SE,135,0.0,0.0,30,0.00,,---,0.00,VWS V13.01,2013-02-17 22:30:00,
2013-02-17 14:35:00,47.5,18.4,30.30,ENE,68,4.9,4.9,31,0.00,,---,0.00,VWS V13.01,2013-02-17 22:35:00,
2013-02-17 14:40:00,47.3,18.2,30.30,East,90,0.0,0.0,31,0.00,,---,0.00,VWS V13.01,2013-02-17 22:40:00,
2013-02-17 14:45:00,47.1,18.1,30.30,East,90,5.4,5.4,31,0.00,,---,0.00,VWS V13.01,2013-02-17 22:45:00,
2013-02-17 14:50:00,46.6,17.6,30.30,NE,45,5.8,5.8,31,0.00,,---,0.00,VWS V13.01,2013-02-17 22:50:00,
2013-02-17 14:55:00,46.0,17.1,30.30,NE,45,5.4,6.3,31,0.00,,---,0.00,VWS V13.01,2013-02-17 22:55:00,
2013-02-17 15:00:00,45.5,17.4,30.30,NE,45,2.7,5.4,32,0.00,,---,0.00,VWS V13.01,2013-02-17 23:00:00,
2013-02-17 15:05:00,45.5,16.6,30.30,NE,45,3.6,3.6,31,0.00,,---,0.00,VWS V13.01,2013-02-17 23:05:00,
2013-02-17 15:10:00,45.3,16.5,30.27,East,90,0.0,2.7,31,0.00,,---,0.00,VWS V13.01,2013-02-17 23:10:00,
2013-02-17 15:15:00,45.5,17.4,30.27,NE,45,2.7,2.7,32,0.00,,---,0.00,VWS V13.01,2013-02-17 23:15:00,
2013-02-17 15:20:00,45.7,17.5,30.27,NE,45,3.6,4.9,32,0.00,,---,0.00,VWS V13.01,2013-02-17 23:20:00,
2013-02-17 15:25:00,45.5,17.4,30.27,East,90,0.0,2.2,32,0.00,,---,0.00,VWS V13.01,2013-02-17 23:25:00,
2013-02-17 15:30:00,45.3,17.2,30.27,NE,45,5.4,6.3,32,0.00,,---,0.00,VWS V13.01,2013-02-17 23:30:00,
2013-02-17 15:35:00,44.8,16.7,30.27,NNE,22,5.4,5.4,32,0.00,,---,0.00,VWS V13.01,2013-02-17 23:35:00,
2013-02-17 15:40:00,44.1,16.1,30.27,NNE,22,4.0,4.0,32,0.00,,---,0.00,VWS V13.01,2013-02-17 23:40:00,
2013-02-17 15:45:00,44.2,16.3,30.27,NE,45,5.4,5.4,32,0.00,,---,0.00,VWS V13.01,2013-02-17 23:45:00,
2013-02-17 15:50:00,44.1,16.1,30.27,NE,45,5.4,5.4,32,0.00,,---,0.00,VWS V13.01,2013-02-17 23:50:00,
2013-02-17 15:55:00,43.5,15.6,30.27,NE,45,5.8,5.8,32,0.00,,---,0.00,VWS V13.01,2013-02-17 23:55:00,
2013-02-17 16:00:00,43.3,15.5,30.27,NE,45,4.9,4.9,32,0.00,,---,0.00,VWS V13.01,2013-02-18 00:00:00,
2013-02-17 16:05:00,42.8,15.0,30.27,NNE,22,5.8,7.6,32,0.00,,---,0.00,VWS V13.01,2013-02-18 00:05:00,
2013-02-17 16:10:00,42.6,15.6,30.27,NE,45,4.0,5.4,33,0.00,,---,0.00,VWS V13.01,2013-02-18 00:10:00,
2013-02-17 16:15:00,42.4,15.4,30.27,NNE,22,4.9,4.9,33,0.00,,---,0.00,VWS V13.01,2013-02-18 00:15:00,
2013-02-17 16:20:00,42.3,15.2,30.27,NE,45,5.8,7.6,33,0.00,,---,0.00,VWS V13.01,2013-02-18 00:20:00,
2013-02-17 16:25:00,42.3,15.2,30.27,NE,45,5.4,5.8,33,0.00,,---,0.00,VWS V13.01,2013-02-18 00:25:00,
2013-02-17 16:30:00,42.3,15.2,30.27,NNE,22,5.8,6.7,33,0.00,,---,0.00,VWS V13.01,2013-02-18 00:30:00,
2013-02-17 16:35:00,42.1,15.8,30.27,NE,45,4.9,5.4,34,0.00,,---,0.00,VWS V13.01,2013-02-18 00:35:00,
2013-02-17 16:40:00,42.1,15.8,30.27,NE,45,4.0,4.0,34,0.00,,---,0.00,VWS V13.01,2013-02-18 00:40:00,
2013-02-17 16:45:00,41.9,15.6,30.27,NE,45,4.0,5.8,34,0.00,,---,0.00,VWS V13.01,2013-02-18 00:45:00,
2013-02-17 16:50:00,41.5,15.3,30.27,NE,45,4.0,4.0,34,0.00,,---,0.00,VWS V13.01,2013-02-18 00:50:00,
2013-02-17 16:55:00,41.5,15.3,30.27,NE,45,2.7,5.4,34,0.00,,---,0.00,VWS V13.01,2013-02-18 00:55:00,
2013-02-17 17:00:00,41.5,15.3,30.27,NE,45,3.6,4.9,34,0.00,,---,0.00,VWS V13.01,2013-02-18 01:00:00,
2013-02-17 17:05:00,41.5,15.3,30.30,NE,45,2.7,2.7,34,0.00,,---,0.00,VWS V13.01,2013-02-18 01:05:00,
2013-02-17 17:10:00,41.5,15.3,30.30,NE,45,4.0,4.0,34,0.00,,---,0.00,VWS V13.01,2013-02-18 01:10:00,
2013-02-17 17:15:00,41.5,15.3,30.30,NE,45,2.7,2.7,34,0.00,,---,0.00,VWS V13.01,2013-02-18 01:15:00,
2013-02-17 17:20:00,41.5,15.3,30.27,NE,45,0.0,2.2,34,0.00,,---,0.00,VWS V13.01,2013-02-18 01:20:00,
2013-02-17 17:25:00,38.5,15.1,30.27,NE,45,0.0,2.7,38,0.00,,---,0.00,VWS V13.01,2013-02-18 01:25:00,
2013-02-17 17:30:00,38.1,14.8,30.27,NE,45,0.0,2.2,38,0.00,,---,0.00,VWS V13.01,2013-02-18 01:30:00,
2013-02-17 17:35:00,37.6,14.9,30.27,NE,45,0.0,0.0,39,0.00,,---,0.00,VWS V13.01,2013-02-18 01:35:00,
2013-02-17 17:40:00,37.0,14.4,30.27,NE,45,0.0,0.0,39,0.00,,---,0.00,VWS V13.01,2013-02-18 01:40:00,
2013-02-17 17:45:00,36.1,14.2,30.27,NE,45,0.0,0.0,40,0.00,,---,0.00,VWS V13.01,2013-02-18 01:45:00,
2013-02-17 17:50:00,35.8,13.8,30.27,NE,45,0.0,0.0,40,0.00,,---,0.00,VWS V13.01,2013-02-18 01:50:00,
2013-02-17 17:55:00,35.1,13.8,30.27,NE,45,0.0,0.0,41,0.00,,---,0.00,VWS V13.01,2013-02-18 01:55:00,
2013-02-17 18:00:00,34.5,13.3,30.27,NE,45,0.0,0.0,41,0.00,,---,0.00,VWS V13.01,2013-02-18 02:00:00,
2013-02-17 18:05:00,34.3,13.1,30.27,NE,45,0.0,0.0,41,0.00,,---,0.00,VWS V13.01,2013-02-18 02:05:00,
2013-02-17 18:10:00,33.8,12.6,30.27,NE,45,0.0,0.0,41,0.00,,---,0.00,VWS V13.01,2013-02-18 02:10:00,
2013-02-17 18:15:00,32.9,12.3,30.27,NE,45,0.0,0.0,42,0.00,,---,0.00,VWS V13.01,2013-02-18 02:15:00,
2013-02-17 18:20:00,32.7,12.7,30.27,North,0,0.0,0.0,43,0.00,,---,0.00,VWS V13.01,2013-02-18 02:20:00,
2013-02-17 18:25:00,32.9,13.4,30.27,North,0,0.0,2.7,44,0.00,,---,0.00,VWS V13.01,2013-02-18 02:25:00,
2013-02-17 18:30:00,32.2,12.7,30.27,NW,315,0.0,3.1,44,0.00,,---,0.00,VWS V13.01,2013-02-18 02:30:00,
2013-02-17 18:35:00,32.5,14.1,30.30,NW,315,0.0,0.0,46,0.00,,---,0.00,VWS V13.01,2013-02-18 02:35:00,
2013-02-17 18:40:00,32.4,14.4,30.30,NW,315,3.6,3.6,47,0.00,,---,0.00,VWS V13.01,2013-02-18 02:40:00,
2013-02-17 18:45:00,32.4,16.3,30.30,NW,315,2.7,2.7,51,0.00,,---,0.00,VWS V13.01,2013-02-18 02:45:00,
2013-02-17 18:50:00,32.4,16.3,30.27,North,0,3.1,3.6,51,0.00,,---,0.00,VWS V13.01,2013-02-18 02:50:00,
2013-02-17 18:55:00,32.7,17.5,30.27,NE,45,0.0,0.0,53,0.00,,---,0.00,VWS V13.01,2013-02-18 02:55:00,
2013-02-17 19:00:00,32.9,18.1,30.27,NW,315,3.6,3.6,54,0.00,,---,0.00,VWS V13.01,2013-02-18 03:00:00,
2013-02-17 19:05:00,33.1,18.3,30.30,NNW,338,0.0,2.7,54,0.00,,---,0.00,VWS V13.01,2013-02-18 03:05:00,
2013-02-17 19:10:00,32.5,18.2,30.30,NNW,338,0.0,3.1,55,0.00,,---,0.00,VWS V13.01,2013-02-18 03:10:00,
2013-02-17 19:15:00,32.4,18.4,30.30,NNW,338,2.2,2.7,56,0.00,,---,0.00,VWS V13.01,2013-02-18 03:15:00,
2013-02-17 19:20:00,32.0,18.5,30.27,NNW,338,2.7,2.7,57,0.00,,---,0.00,VWS V13.01,2013-02-18 03:20:00,
2013-02-17 19:25:00,31.5,18.0,30.27,NNW,338,0.0,0.0,57,0.00,,---,0.00,VWS V13.01,2013-02-18 03:25:00,
2013-02-17 19:30:00,31.3,18.2,30.27,NNW,338,0.0,3.1,58,0.00,,---,0.00,VWS V13.01,2013-02-18 03:30:00,
2013-02-17 19:35:00,30.7,17.7,30.27,NNW,338,0.0,0.0,58,0.00,,---,0.00,VWS V13.01,2013-02-18 03:35:00,
2013-02-17 19:40:00,30.6,18.0,30.27,NNW,338,0.0,0.0,59,0.00,,---,0.00,VWS V13.01,2013-02-18 03:40:00,
2013-02-17 19:45:00,30.2,18.4,30.27,NNW,338,0.0,0.0,61,0.00,,---,0.00,VWS V13.01,2013-02-18 03:45:00,
2013-02-17 19:50:00,30.2,18.8,30.27,NNW,338,0.0,0.0,62,0.00,,---,0.00,VWS V13.01,2013-02-18 03:50:00,
2013-02-17 19:55:00,29.8,18.8,30.30,NNW,338,0.0,0.0,63,0.00,,---,0.00,VWS V13.01,2013-02-18 03:55:00,
2013-02-17 20:00:00,29.5,18.8,30.30,NNW,338,0.0,0.0,64,0.00,,---,0.00,VWS V13.01,2013-02-18 04:00:00,
2013-02-17 20:05:00,29.5,18.8,30.30,NNW,338,0.0,0.0,64,0.00,,---,0.00,VWS V13.01,2013-02-18 04:05:00,
2013-02-17 20:10:00,29.1,18.8,30.30,NNW,338,0.0,0.0,65,0.00,,---,0.00,VWS V13.01,2013-02-18 04:10:00,
2013-02-17 20:15:00,28.9,19.0,30.30,NNW,338,0.0,0.0,66,0.00,,---,0.00,VWS V13.01,2013-02-18 04:15:00,
2013-02-17 20:20:00,28.8,18.9,30.30,NNW,338,0.0,0.0,66,0.00,,---,0.00,VWS V13.01,2013-02-18 04:20:00,
2013-02-17 20:25:00,28.6,19.0,30.27,NNW,338,0.0,0.0,67,0.00,,---,0.00,VWS V13.01,2013-02-18 04:25:00,
2013-02-17 20:30:00,28.6,19.4,30.27,NNW,338,0.0,0.0,68,0.00,,---,0.00,VWS V13.01,2013-02-18 04:30:00,
2013-02-17 20:35:00,28.9,20.1,30.27,NNW,338,0.0,0.0,69,0.00,,---,0.00,VWS V13.01,2013-02-18 04:35:00,
2013-02-17 20:40:00,28.6,19.7,30.30,NNW,338,0.0,0.0,69,0.00,,---,0.00,VWS V13.01,2013-02-18 04:40:00,
2013-02-17 20:45:00,28.6,19.7,30.30,NNW,338,0.0,0.0,69,0.00,,---,0.00,VWS V13.01,2013-02-18 04:45:00,
2013-02-17 20:50:00,28.8,20.2,30.30,NNW,338,0.0,0.0,70,0.00,,---,0.00,VWS V13.01,2013-02-18 04:50:00,
2013-02-17 20:55:00,28.8,20.2,30.30,NNW,338,0.0,0.0,70,0.00,,---,0.00,VWS V13.01,2013-02-18 04:55:00,
2013-02-17 21:00:00,28.6,19.7,30.30,NNW,338,0.0,0.0,69,0.00,,---,0.00,VWS V13.01,2013-02-18 05:00:00,
2013-02-17 21:05:00,28.4,19.9,30.30,NNW,338,0.0,0.0,70,0.00,,---,0.00,VWS V13.01,2013-02-18 05:05:00,
2013-02-17 21:10:00,28.6,20.0,30.30,NNW,338,0.0,0.0,70,0.00,,---,0.00,VWS V13.01,2013-02-18 05:10:00,
2013-02-17 21:15:00,28.6,20.0,30.30,NNW,338,0.0,0.0,70,0.00,,---,0.00,VWS V13.01,2013-02-18 05:15:00,
2013-02-17 21:20:00,28.8,20.6,30.30,NNW,338,0.0,0.0,71,0.00,,---,0.00,VWS V13.01,2013-02-18 05:20:00,
2013-02-17 21:25:00,28.8,20.2,30.27,NNW,338,0.0,0.0,70,0.00,,---,0.00,VWS V13.01,2013-02-18 05:25:00,
2013-02-17 21:30:00,28.8,20.2,30.27,NNW,338,0.0,0.0,70,0.00,,---,0.00,VWS V13.01,2013-02-18 05:30:00,
2013-02-17 21:35:00,28.6,20.0,30.27,NNW,338,0.0,0.0,70,0.00,,---,0.00,VWS V13.01,2013-02-18 05:35:00,
2013-02-17 21:40:00,28.6,20.4,30.27,NNW,338,0.0,0.0,71,0.00,,---,0.00,VWS V13.01,2013-02-18 05:40:00,
2013-02-17 21:45:00,28.6,20.4,30.27,NNW,338,0.0,0.0,71,0.00,,---,0.00,VWS V13.01,2013-02-18 05:45:00,
2013-02-17 21:50:00,28.4,20.5,30.27,NNW,338,0.0,0.0,72,0.00,,---,0.00,VWS V13.01,2013-02-18 05:50:00,
2013-02-17 21:55:00,28.2,20.4,30.27,NNW,338,0.0,0.0,72,0.00,,---,0.00,VWS V13.01,2013-02-18 05:55:00,
2013-02-17 22:00:00,27.5,19.7,30.27,NNW,338,0.0,0.0,72,0.00,,---,0.00,VWS V13.01,2013-02-18 06:00:00,
2013-02-17 22:05:00,27.1,19.3,30.27,NNW,338,0.0,0.0,72,0.00,,---,0.00,VWS V13.01,2013-02-18 06:05:00,
2013-02-17 22:10:00,26.6,19.1,30.27,NNW,338,0.0,0.0,73,0.00,,---,0.00,VWS V13.01,2013-02-18 06:10:00,
2013-02-17 22:15:00,26.2,18.8,30.27,NNW,338,0.0,0.0,73,0.00,,---,0.00,VWS V13.01,2013-02-18 06:15:00,
2013-02-17 22:20:00,25.9,18.8,30.27,NNW,338,0.0,0.0,74,0.00,,---,0.00,VWS V13.01,2013-02-18 06:20:00,
2013-02-17 22:25:00,25.5,18.4,30.27,NNW,338,0.0,0.0,74,0.00,,---,0.00,VWS V13.01,2013-02-18 06:25:00,
2013-02-17 22:30:00,25.3,18.5,30.27,NNW,338,0.0,0.0,75,0.00,,---,0.00,VWS V13.01,2013-02-18 06:30:00,
2013-02-17 22:35:00,25.5,19.3,30.27,NNW,338,0.0,0.0,77,0.00,,---,0.00,VWS V13.01,2013-02-18 06:35:00,
2013-02-17 22:40:00,25.7,19.5,30.27,NNW,338,0.0,0.0,77,0.00,,---,0.00,VWS V13.01,2013-02-18 06:40:00,
2013-02-17 22:45:00,25.3,19.5,30.27,NNW,338,0.0,0.0,78,0.00,,---,0.00,VWS V13.01,2013-02-18 06:45:00,
2013-02-17 22:50:00,25.2,19.3,30.27,NNW,338,0.0,0.0,78,0.00,,---,0.00,VWS V13.01,2013-02-18 06:50:00,
2013-02-17 22:55:00,25.0,19.1,30.27,NNW,338,0.0,0.0,78,0.00,,---,0.00,VWS V13.01,2013-02-18 06:55:00,
2013-02-17 23:00:00,24.8,19.2,30.27,NNW,338,0.0,0.0,79,0.00,,---,0.00,VWS V13.01,2013-02-18 07:00:00,
2013-02-17 23:05:00,24.3,18.7,30.27,NNW,338,0.0,0.0,79,0.00,,---,0.00,VWS V13.01,2013-02-18 07:05:00,
2013-02-17 23:09:00,24.1,18.5,30.27,NNW,338,0.0,0.0,79,0.00,,---,0.00,VWS V13.01,2013-02-18 07:09:00,
2013-02-17 23:10:00,23.7,18.2,30.27,NNW,338,0.0,0.0,79,0.00,,---,0.00,VWS V13.01,2013-02-18 07:10:00,
2013-02-17 23:15:00,23.7,18.2,30.27,NNW,338,0.0,0.0,79,0.00,,---,0.00,VWS V13.01,2013-02-18 07:15:00,
2013-02-17 23:20:00,23.5,18.3,30.27,NNW,338,0.0,0.0,80,0.00,,---,0.00,VWS V13.01,2013-02-18 07:20:00,
2013-02-17 23:25:00,23.5,18.6,30.27,NNW,338,0.0,0.0,81,0.00,,---,0.00,VWS V13.01,2013-02-18 07:25:00,
2013-02-17 23:30:00,23.4,18.7,30.27,NNW,338,0.0,0.0,82,0.00,,---,0.00,VWS V13.01,2013-02-18 07:30:00,
2013-02-17 23:35:00,23.0,18.6,30.27,NNW,338,0.0,0.0,83,0.00,,---,0.00,VWS V13.01,2013-02-18 07:35:00,
2013-02-17 23:40:00,23.0,18.6,30.27,NNW,338,0.0,0.0,83,0.00,,---,0.00,VWS V13.01,2013-02-18 07:40:00,
2013-02-17 23:45:00,22.6,18.3,30.27,NNW,338,0.0,0.0,83,0.00,,---,0.00,VWS V13.01,2013-02-18 07:45:00,
2013-02-17 23:50:00,23.2,19.1,30.27,NNW,338,0.0,0.0,84,0.00,,---,0.00,VWS V13.01,2013-02-18 07:50:00,
2013-02-17 23:55:00,23.2,19.4,30.27,NNW,338,0.0,0.0,85,0.00,,---,0.00,VWS V13.01,2013-02-18 07:55:00,